sensor_id;sensor_type;location;lat;lon;timestamp;temperature;humidity
12708;DHT22;6418;50.824;4.718;2023-07-20T00:00:10;16.10;99.90
12708;DHT22;6418;50.824;4.718;2023-07-20T00:02:38;16.10;99.90
12708;DHT22;6418;50.824;4.718;2023-07-20T00:05:05;16.10;99.90
12708;DHT22;6418;50.824;4.718;2023-07-20T00:07:32;16.10;99.90
12708;DHT22;6418;50.824;4.718;2023-07-20T00:10:00;16.10;99.90
12708;DHT22;6418;50.824;4.718;2023-07-20T00:12:27;16.10;99.90
12708;DHT22;6418;50.824;4.718;2023-07-20T00:14:54;16.10;99.90
12708;DHT22;6418;50.824;4.718;2023-07-20T00:17:21;16.10;99.90
12708;DHT22;6418;50.824;4.718;2023-07-20T00:19:48;16.10;99.90
12708;DHT22;6418;50.824;4.718;2023-07-20T00:22:15;16.10;99.90
12708;DHT22;6418;50.824;4.718;2023-07-20T00:24:42;16.00;99.90
12708;DHT22;6418;50.824;4.718;2023-07-20T00:27:10;16.10;99.90
12708;DHT22;6418;50.824;4.718;2023-07-20T00:29:37;16.00;99.90
12708;DHT22;6418;50.824;4.718;2023-07-20T00:32:04;16.00;99.90
12708;DHT22;6418;50.824;4.718;2023-07-20T00:34:31;16.10;99.90
12708;DHT22;6418;50.824;4.718;2023-07-20T00:36:58;16.00;99.90
12708;DHT22;6418;50.824;4.718;2023-07-20T00:39:25;16.10;99.90
12708;DHT22;6418;50.824;4.718;2023-07-20T00:41:52;16.10;99.90
12708;DHT22;6418;50.824;4.718;2023-07-20T00:44:20;16.00;99.90
12708;DHT22;6418;50.824;4.718;2023-07-20T00:46:47;16.00;99.90
12708;DHT22;6418;50.824;4.718;2023-07-20T00:49:15;16.00;99.90
12708;DHT22;6418;50.824;4.718;2023-07-20T00:51:42;16.00;99.90
12708;DHT22;6418;50.824;4.718;2023-07-20T00:54:09;16.00;99.90
12708;DHT22;6418;50.824;4.718;2023-07-20T00:56:36;16.00;99.90
12708;DHT22;6418;50.824;4.718;2023-07-20T00:59:03;16.00;99.90
12708;DHT22;6418;50.824;4.718;2023-07-20T01:01:31;16.00;99.90
12708;DHT22;6418;50.824;4.718;2023-07-20T01:03:58;16.00;99.90
12708;DHT22;6418;50.824;4.718;2023-07-20T01:06:29;16.00;99.90
12708;DHT22;6418;50.824;4.718;2023-07-20T01:09:07;16.00;99.90
12708;DHT22;6418;50.824;4.718;2023-07-20T01:11:38;16.00;99.90
12708;DHT22;6418;50.824;4.718;2023-07-20T01:14:09;16.00;99.90
12708;DHT22;6418;50.824;4.718;2023-07-20T01:16:38;16.00;99.90
12708;DHT22;6418;50.824;4.718;2023-07-20T01:19:05;15.90;99.90
12708;DHT22;6418;50.824;4.718;2023-07-20T01:21:39;15.90;99.90
12708;DHT22;6418;50.824;4.718;2023-07-20T01:24:35;15.90;99.90
12708;DHT22;6418;50.824;4.718;2023-07-20T01:27:36;15.90;99.90
12708;DHT22;6418;50.824;4.718;2023-07-20T01:30:25;15.80;99.90
12708;DHT22;6418;50.824;4.718;2023-07-20T01:32:58;15.80;99.90
12708;DHT22;6418;50.824;4.718;2023-07-20T01:35:29;15.80;99.90
12708;DHT22;6418;50.824;4.718;2023-07-20T01:37:57;15.70;99.90
12708;DHT22;6418;50.824;4.718;2023-07-20T01:40:25;15.70;99.90
12708;DHT22;6418;50.824;4.718;2023-07-20T01:42:52;15.70;99.90
12708;DHT22;6418;50.824;4.718;2023-07-20T01:45:19;15.70;99.90
12708;DHT22;6418;50.824;4.718;2023-07-20T01:47:46;15.70;99.90
12708;DHT22;6418;50.824;4.718;2023-07-20T01:50:14;15.70;99.90
12708;DHT22;6418;50.824;4.718;2023-07-20T01:52:41;15.70;99.90
12708;DHT22;6418;50.824;4.718;2023-07-20T01:55:08;15.70;99.90
12708;DHT22;6418;50.824;4.718;2023-07-20T01:57:35;15.70;99.90
12708;DHT22;6418;50.824;4.718;2023-07-20T02:00:04;15.70;99.90
12708;DHT22;6418;50.824;4.718;2023-07-20T02:02:31;15.70;99.90
12708;DHT22;6418;50.824;4.718;2023-07-20T02:04:58;15.70;99.90
12708;DHT22;6418;50.824;4.718;2023-07-20T02:07:26;15.70;99.90
12708;DHT22;6418;50.824;4.718;2023-07-20T02:09:53;15.70;99.90
12708;DHT22;6418;50.824;4.718;2023-07-20T02:12:19;15.70;99.90
12708;DHT22;6418;50.824;4.718;2023-07-20T02:14:47;15.70;99.90
12708;DHT22;6418;50.824;4.718;2023-07-20T02:17:16;15.70;99.90
12708;DHT22;6418;50.824;4.718;2023-07-20T02:19:43;15.70;99.90
12708;DHT22;6418;50.824;4.718;2023-07-20T02:22:10;15.70;99.90
12708;DHT22;6418;50.824;4.718;2023-07-20T02:24:39;15.60;99.90
12708;DHT22;6418;50.824;4.718;2023-07-20T02:27:06;15.70;99.90
12708;DHT22;6418;50.824;4.718;2023-07-20T02:29:32;15.70;99.90
12708;DHT22;6418;50.824;4.718;2023-07-20T02:31:59;15.70;99.90
12708;DHT22;6418;50.824;4.718;2023-07-20T02:34:26;15.70;99.90
12708;DHT22;6418;50.824;4.718;2023-07-20T02:36:54;15.70;99.90
12708;DHT22;6418;50.824;4.718;2023-07-20T02:39:22;15.60;99.90
12708;DHT22;6418;50.824;4.718;2023-07-20T02:41:50;15.60;99.90
12708;DHT22;6418;50.824;4.718;2023-07-20T02:44:17;15.60;99.90
12708;DHT22;6418;50.824;4.718;2023-07-20T02:46:44;15.60;99.90
12708;DHT22;6418;50.824;4.718;2023-07-20T02:49:11;15.60;99.90
12708;DHT22;6418;50.824;4.718;2023-07-20T02:51:38;15.70;99.90
12708;DHT22;6418;50.824;4.718;2023-07-20T02:54:05;15.60;99.90
12708;DHT22;6418;50.824;4.718;2023-07-20T02:56:32;15.60;99.90
12708;DHT22;6418;50.824;4.718;2023-07-20T02:59:01;15.60;99.90
12708;DHT22;6418;50.824;4.718;2023-07-20T03:01:28;15.60;99.90
12708;DHT22;6418;50.824;4.718;2023-07-20T03:03:55;15.60;99.90
12708;DHT22;6418;50.824;4.718;2023-07-20T03:06:23;15.60;99.90
12708;DHT22;6418;50.824;4.718;2023-07-20T03:08:50;15.60;99.90
12708;DHT22;6418;50.824;4.718;2023-07-20T03:11:18;15.60;99.90
12708;DHT22;6418;50.824;4.718;2023-07-20T03:13:45;15.50;99.90
12708;DHT22;6418;50.824;4.718;2023-07-20T03:16:19;15.50;99.90
12708;DHT22;6418;50.824;4.718;2023-07-20T03:18:46;15.50;99.90
12708;DHT22;6418;50.824;4.718;2023-07-20T03:21:14;15.40;99.90
12708;DHT22;6418;50.824;4.718;2023-07-20T03:23:41;15.40;99.90
12708;DHT22;6418;50.824;4.718;2023-07-20T03:26:08;15.40;99.90
12708;DHT22;6418;50.824;4.718;2023-07-20T03:28:35;15.40;99.90
12708;DHT22;6418;50.824;4.718;2023-07-20T03:31:03;15.40;99.90
12708;DHT22;6418;50.824;4.718;2023-07-20T03:33:31;15.30;99.90
12708;DHT22;6418;50.824;4.718;2023-07-20T03:35:59;15.30;99.90
12708;DHT22;6418;50.824;4.718;2023-07-20T03:38:26;15.30;99.90
12708;DHT22;6418;50.824;4.718;2023-07-20T03:40:55;15.30;99.90
12708;DHT22;6418;50.824;4.718;2023-07-20T03:43:22;15.30;99.90
12708;DHT22;6418;50.824;4.718;2023-07-20T03:45:50;15.30;99.90
12708;DHT22;6418;50.824;4.718;2023-07-20T03:48:18;15.30;99.90
12708;DHT22;6418;50.824;4.718;2023-07-20T03:50:48;15.30;99.90
12708;DHT22;6418;50.824;4.718;2023-07-20T03:53:16;15.30;99.90
12708;DHT22;6418;50.824;4.718;2023-07-20T03:55:44;15.30;99.90
12708;DHT22;6418;50.824;4.718;2023-07-20T03:58:11;15.30;99.90
12708;DHT22;6418;50.824;4.718;2023-07-20T04:00:38;15.30;99.90
12708;DHT22;6418;50.824;4.718;2023-07-20T04:03:05;15.30;99.90
12708;DHT22;6418;50.824;4.718;2023-07-20T04:05:32;15.30;99.90
12708;DHT22;6418;50.824;4.718;2023-07-20T04:08:00;15.30;99.90
12708;DHT22;6418;50.824;4.718;2023-07-20T04:10:27;15.30;99.90
12708;DHT22;6418;50.824;4.718;2023-07-20T04:12:54;15.40;99.90
12708;DHT22;6418;50.824;4.718;2023-07-20T04:15:21;15.40;99.90
12708;DHT22;6418;50.824;4.718;2023-07-20T04:17:48;15.40;99.90
12708;DHT22;6418;50.824;4.718;2023-07-20T04:20:15;15.40;99.90
12708;DHT22;6418;50.824;4.718;2023-07-20T04:22:43;15.40;99.90
12708;DHT22;6418;50.824;4.718;2023-07-20T04:25:11;15.40;99.90
12708;DHT22;6418;50.824;4.718;2023-07-20T04:27:38;15.40;99.90
12708;DHT22;6418;50.824;4.718;2023-07-20T04:30:07;15.40;99.90
12708;DHT22;6418;50.824;4.718;2023-07-20T04:32:34;15.50;99.90
12708;DHT22;6418;50.824;4.718;2023-07-20T04:35:05;15.50;99.90
12708;DHT22;6418;50.824;4.718;2023-07-20T04:37:32;15.50;99.90
12708;DHT22;6418;50.824;4.718;2023-07-20T04:39:59;15.50;99.90
12708;DHT22;6418;50.824;4.718;2023-07-20T04:42:27;15.50;99.90
12708;DHT22;6418;50.824;4.718;2023-07-20T04:44:54;15.50;99.90
12708;DHT22;6418;50.824;4.718;2023-07-20T04:47:21;15.50;99.90
12708;DHT22;6418;50.824;4.718;2023-07-20T04:49:48;15.60;99.90
12708;DHT22;6418;50.824;4.718;2023-07-20T04:52:14;15.60;99.90
12708;DHT22;6418;50.824;4.718;2023-07-20T04:54:41;15.60;99.90
12708;DHT22;6418;50.824;4.718;2023-07-20T04:57:11;15.60;99.90
12708;DHT22;6418;50.824;4.718;2023-07-20T04:59:40;15.70;99.90
12708;DHT22;6418;50.824;4.718;2023-07-20T05:02:07;15.70;99.90
12708;DHT22;6418;50.824;4.718;2023-07-20T05:04:34;15.70;99.90
12708;DHT22;6418;50.824;4.718;2023-07-20T05:07:00;15.80;99.90
12708;DHT22;6418;50.824;4.718;2023-07-20T05:09:27;15.80;99.90
12708;DHT22;6418;50.824;4.718;2023-07-20T05:11:54;15.80;99.90
12708;DHT22;6418;50.824;4.718;2023-07-20T05:14:21;15.80;99.90
12708;DHT22;6418;50.824;4.718;2023-07-20T05:16:49;15.90;99.90
12708;DHT22;6418;50.824;4.718;2023-07-20T05:19:16;15.90;99.90
12708;DHT22;6418;50.824;4.718;2023-07-20T05:21:43;16.00;99.90
12708;DHT22;6418;50.824;4.718;2023-07-20T05:24:10;16.00;99.90
12708;DHT22;6418;50.824;4.718;2023-07-20T05:26:37;16.00;99.90
12708;DHT22;6418;50.824;4.718;2023-07-20T05:29:03;16.10;99.90
12708;DHT22;6418;50.824;4.718;2023-07-20T05:31:30;16.10;99.90
12708;DHT22;6418;50.824;4.718;2023-07-20T05:33:59;16.20;99.90
12708;DHT22;6418;50.824;4.718;2023-07-20T05:36:26;16.20;99.90
12708;DHT22;6418;50.824;4.718;2023-07-20T05:38:53;16.20;99.90
12708;DHT22;6418;50.824;4.718;2023-07-20T05:41:20;16.30;99.90
12708;DHT22;6418;50.824;4.718;2023-07-20T05:43:48;16.30;99.90
12708;DHT22;6418;50.824;4.718;2023-07-20T05:46:15;16.30;99.90
12708;DHT22;6418;50.824;4.718;2023-07-20T05:48:41;16.40;99.90
12708;DHT22;6418;50.824;4.718;2023-07-20T05:51:10;16.40;99.90
12708;DHT22;6418;50.824;4.718;2023-07-20T05:53:36;16.40;99.90
12708;DHT22;6418;50.824;4.718;2023-07-20T05:56:04;16.50;99.90
12708;DHT22;6418;50.824;4.718;2023-07-20T05:58:31;16.50;99.90
12708;DHT22;6418;50.824;4.718;2023-07-20T06:00:58;16.50;99.90
12708;DHT22;6418;50.824;4.718;2023-07-20T06:03:25;16.60;99.90
12708;DHT22;6418;50.824;4.718;2023-07-20T06:05:57;16.60;99.90
12708;DHT22;6418;50.824;4.718;2023-07-20T06:08:25;16.60;99.90
12708;DHT22;6418;50.824;4.718;2023-07-20T06:10:52;16.60;99.90
12708;DHT22;6418;50.824;4.718;2023-07-20T06:13:19;16.70;99.90
12708;DHT22;6418;50.824;4.718;2023-07-20T06:15:46;16.70;99.90
12708;DHT22;6418;50.824;4.718;2023-07-20T06:18:13;16.80;99.90
12708;DHT22;6418;50.824;4.718;2023-07-20T06:20:40;16.80;99.90
12708;DHT22;6418;50.824;4.718;2023-07-20T06:23:07;16.90;99.90
12708;DHT22;6418;50.824;4.718;2023-07-20T06:25:35;16.90;99.90
12708;DHT22;6418;50.824;4.718;2023-07-20T06:28:02;17.00;99.90
12708;DHT22;6418;50.824;4.718;2023-07-20T06:30:33;17.00;99.90
12708;DHT22;6418;50.824;4.718;2023-07-20T06:33:00;17.10;99.90
12708;DHT22;6418;50.824;4.718;2023-07-20T06:35:27;17.10;99.90
12708;DHT22;6418;50.824;4.718;2023-07-20T06:37:54;17.20;99.90
12708;DHT22;6418;50.824;4.718;2023-07-20T06:40:21;17.20;99.90
12708;DHT22;6418;50.824;4.718;2023-07-20T06:42:49;17.30;99.90
12708;DHT22;6418;50.824;4.718;2023-07-20T06:45:17;17.30;99.90
12708;DHT22;6418;50.824;4.718;2023-07-20T06:47:44;17.40;99.90
12708;DHT22;6418;50.824;4.718;2023-07-20T06:50:11;17.40;99.90
12708;DHT22;6418;50.824;4.718;2023-07-20T06:52:38;17.50;99.90
12708;DHT22;6418;50.824;4.718;2023-07-20T06:55:06;17.50;99.90
12708;DHT22;6418;50.824;4.718;2023-07-20T06:57:33;17.60;99.90
12708;DHT22;6418;50.824;4.718;2023-07-20T07:00:02;17.60;99.90
12708;DHT22;6418;50.824;4.718;2023-07-20T07:02:30;17.70;99.90
12708;DHT22;6418;50.824;4.718;2023-07-20T07:04:56;17.70;99.90
12708;DHT22;6418;50.824;4.718;2023-07-20T07:07:23;17.80;99.90
12708;DHT22;6418;50.824;4.718;2023-07-20T07:09:50;17.80;99.90
12708;DHT22;6418;50.824;4.718;2023-07-20T07:12:17;17.90;99.90
12708;DHT22;6418;50.824;4.718;2023-07-20T07:14:44;18.00;99.90
12708;DHT22;6418;50.824;4.718;2023-07-20T07:17:12;18.00;99.90
12708;DHT22;6418;50.824;4.718;2023-07-20T07:19:40;18.00;99.90
12708;DHT22;6418;50.824;4.718;2023-07-20T07:22:07;18.10;99.90
12708;DHT22;6418;50.824;4.718;2023-07-20T07:24:34;18.20;99.90
12708;DHT22;6418;50.824;4.718;2023-07-20T07:27:01;18.20;99.90
12708;DHT22;6418;50.824;4.718;2023-07-20T07:29:29;18.20;99.90
12708;DHT22;6418;50.824;4.718;2023-07-20T07:31:56;18.20;99.90
12708;DHT22;6418;50.824;4.718;2023-07-20T07:34:25;18.30;99.90
12708;DHT22;6418;50.824;4.718;2023-07-20T07:36:52;18.20;99.90
12708;DHT22;6418;50.824;4.718;2023-07-20T07:39:19;18.20;99.90
12708;DHT22;6418;50.824;4.718;2023-07-20T07:41:46;18.30;99.90
12708;DHT22;6418;50.824;4.718;2023-07-20T07:44:13;18.30;99.90
12708;DHT22;6418;50.824;4.718;2023-07-20T07:46:39;18.30;99.90
12708;DHT22;6418;50.824;4.718;2023-07-20T07:49:07;18.40;99.90
12708;DHT22;6418;50.824;4.718;2023-07-20T07:51:35;18.40;99.90
12708;DHT22;6418;50.824;4.718;2023-07-20T07:54:02;18.40;99.90
12708;DHT22;6418;50.824;4.718;2023-07-20T07:56:29;18.50;99.90
12708;DHT22;6418;50.824;4.718;2023-07-20T07:58:56;18.50;99.90
12708;DHT22;6418;50.824;4.718;2023-07-20T08:01:23;18.50;99.90
12708;DHT22;6418;50.824;4.718;2023-07-20T08:03:50;18.50;99.90
12708;DHT22;6418;50.824;4.718;2023-07-20T08:06:17;18.50;99.90
12708;DHT22;6418;50.824;4.718;2023-07-20T08:08:45;18.40;99.90
12708;DHT22;6418;50.824;4.718;2023-07-20T08:11:12;18.50;99.90
12708;DHT22;6418;50.824;4.718;2023-07-20T08:13:39;18.50;99.90
12708;DHT22;6418;50.824;4.718;2023-07-20T08:16:06;18.60;99.90
12708;DHT22;6418;50.824;4.718;2023-07-20T08:18:33;18.70;99.90
12708;DHT22;6418;50.824;4.718;2023-07-20T08:21:00;18.80;99.90
12708;DHT22;6418;50.824;4.718;2023-07-20T08:23:27;18.80;99.90
12708;DHT22;6418;50.824;4.718;2023-07-20T08:25:55;18.90;99.90
12708;DHT22;6418;50.824;4.718;2023-07-20T08:28:22;19.00;99.90
12708;DHT22;6418;50.824;4.718;2023-07-20T08:30:49;19.10;99.90
12708;DHT22;6418;50.824;4.718;2023-07-20T08:33:17;19.20;99.90
12708;DHT22;6418;50.824;4.718;2023-07-20T08:35:45;19.30;99.90
12708;DHT22;6418;50.824;4.718;2023-07-20T08:38:13;19.40;99.90
12708;DHT22;6418;50.824;4.718;2023-07-20T08:40:41;19.60;99.90
12708;DHT22;6418;50.824;4.718;2023-07-20T08:43:10;19.70;99.90
12708;DHT22;6418;50.824;4.718;2023-07-20T08:45:39;19.70;99.90
12708;DHT22;6418;50.824;4.718;2023-07-20T08:48:07;19.80;99.90
12708;DHT22;6418;50.824;4.718;2023-07-20T08:50:35;19.80;99.90
12708;DHT22;6418;50.824;4.718;2023-07-20T08:53:02;19.90;99.90
12708;DHT22;6418;50.824;4.718;2023-07-20T08:55:30;19.80;99.90
12708;DHT22;6418;50.824;4.718;2023-07-20T08:57:58;19.90;99.90
12708;DHT22;6418;50.824;4.718;2023-07-20T09:00:27;20.00;99.90
12708;DHT22;6418;50.824;4.718;2023-07-20T09:02:55;20.10;99.90
12708;DHT22;6418;50.824;4.718;2023-07-20T09:05:23;20.10;99.90
12708;DHT22;6418;50.824;4.718;2023-07-20T09:07:51;20.20;99.90
12708;DHT22;6418;50.824;4.718;2023-07-20T09:10:18;20.20;99.90
12708;DHT22;6418;50.824;4.718;2023-07-20T09:12:46;20.20;99.90
12708;DHT22;6418;50.824;4.718;2023-07-20T09:15:13;20.20;99.90
12708;DHT22;6418;50.824;4.718;2023-07-20T09:17:45;20.30;99.90
12708;DHT22;6418;50.824;4.718;2023-07-20T09:20:15;20.20;99.90
12708;DHT22;6418;50.824;4.718;2023-07-20T09:22:42;20.20;99.90
12708;DHT22;6418;50.824;4.718;2023-07-20T09:25:11;20.20;99.90
12708;DHT22;6418;50.824;4.718;2023-07-20T09:27:41;20.30;99.90
12708;DHT22;6418;50.824;4.718;2023-07-20T09:30:08;20.30;99.90
12708;DHT22;6418;50.824;4.718;2023-07-20T09:32:42;20.40;99.90
12708;DHT22;6418;50.824;4.718;2023-07-20T09:35:15;20.50;99.90
12708;DHT22;6418;50.824;4.718;2023-07-20T09:37:46;20.50;99.90
12708;DHT22;6418;50.824;4.718;2023-07-20T09:40:17;20.60;99.90
12708;DHT22;6418;50.824;4.718;2023-07-20T09:42:44;20.60;99.90
12708;DHT22;6418;50.824;4.718;2023-07-20T09:45:12;20.70;99.90
12708;DHT22;6418;50.824;4.718;2023-07-20T09:47:40;20.70;99.90
12708;DHT22;6418;50.824;4.718;2023-07-20T09:50:08;20.70;99.90
12708;DHT22;6418;50.824;4.718;2023-07-20T09:52:47;20.80;99.90
12708;DHT22;6418;50.824;4.718;2023-07-20T09:55:14;20.80;99.90
12708;DHT22;6418;50.824;4.718;2023-07-20T09:57:41;20.90;99.90
12708;DHT22;6418;50.824;4.718;2023-07-20T10:00:08;20.90;99.90
12708;DHT22;6418;50.824;4.718;2023-07-20T10:02:43;21.00;99.90
12708;DHT22;6418;50.824;4.718;2023-07-20T10:05:12;21.10;99.90
12708;DHT22;6418;50.824;4.718;2023-07-20T10:07:44;21.20;99.90
12708;DHT22;6418;50.824;4.718;2023-07-20T10:10:14;21.20;99.90
12708;DHT22;6418;50.824;4.718;2023-07-20T10:12:41;21.30;99.90
12708;DHT22;6418;50.824;4.718;2023-07-20T10:15:15;21.40;99.90
12708;DHT22;6418;50.824;4.718;2023-07-20T10:17:55;21.40;99.90
12708;DHT22;6418;50.824;4.718;2023-07-20T10:20:25;21.50;99.90
12708;DHT22;6418;50.824;4.718;2023-07-20T10:22:53;21.60;99.90
12708;DHT22;6418;50.824;4.718;2023-07-20T10:25:22;21.70;99.90
12708;DHT22;6418;50.824;4.718;2023-07-20T10:27:49;21.80;99.90
12708;DHT22;6418;50.824;4.718;2023-07-20T10:30:18;21.90;99.90
12708;DHT22;6418;50.824;4.718;2023-07-20T10:32:47;22.00;99.90
12708;DHT22;6418;50.824;4.718;2023-07-20T10:35:16;22.10;99.90
12708;DHT22;6418;50.824;4.718;2023-07-20T10:37:47;22.20;99.90
12708;DHT22;6418;50.824;4.718;2023-07-20T10:40:24;22.30;99.90
12708;DHT22;6418;50.824;4.718;2023-07-20T10:42:57;22.40;99.90
12708;DHT22;6418;50.824;4.718;2023-07-20T10:45:33;22.50;99.90
12708;DHT22;6418;50.824;4.718;2023-07-20T10:48:04;22.70;99.90
12708;DHT22;6418;50.824;4.718;2023-07-20T10:50:32;22.80;99.90
12708;DHT22;6418;50.824;4.718;2023-07-20T10:53:10;22.90;99.90
12708;DHT22;6418;50.824;4.718;2023-07-20T10:55:38;23.00;99.90
12708;DHT22;6418;50.824;4.718;2023-07-20T10:58:07;23.10;99.90
12708;DHT22;6418;50.824;4.718;2023-07-20T11:00:34;23.20;99.90
12708;DHT22;6418;50.824;4.718;2023-07-20T11:03:01;23.30;99.90
12708;DHT22;6418;50.824;4.718;2023-07-20T11:05:37;23.40;99.90
12708;DHT22;6418;50.824;4.718;2023-07-20T11:08:07;23.50;99.90
12708;DHT22;6418;50.824;4.718;2023-07-20T11:10:35;23.50;99.90
12708;DHT22;6418;50.824;4.718;2023-07-20T11:13:19;23.60;99.90
12708;DHT22;6418;50.824;4.718;2023-07-20T11:15:47;23.70;99.90
12708;DHT22;6418;50.824;4.718;2023-07-20T11:18:14;23.70;99.90
12708;DHT22;6418;50.824;4.718;2023-07-20T11:20:43;23.70;99.90
12708;DHT22;6418;50.824;4.718;2023-07-20T11:23:10;23.60;99.90
12708;DHT22;6418;50.824;4.718;2023-07-20T11:25:37;23.60;99.90
12708;DHT22;6418;50.824;4.718;2023-07-20T11:28:07;23.60;99.90
12708;DHT22;6418;50.824;4.718;2023-07-20T11:30:34;23.60;99.90
12708;DHT22;6418;50.824;4.718;2023-07-20T11:33:01;23.50;99.90
12708;DHT22;6418;50.824;4.718;2023-07-20T11:35:28;23.50;99.90
12708;DHT22;6418;50.824;4.718;2023-07-20T11:37:56;23.40;99.90
12708;DHT22;6418;50.824;4.718;2023-07-20T11:40:23;23.30;99.90
12708;DHT22;6418;50.824;4.718;2023-07-20T11:42:50;23.20;99.90
12708;DHT22;6418;50.824;4.718;2023-07-20T11:45:18;23.20;99.90
12708;DHT22;6418;50.824;4.718;2023-07-20T11:47:45;23.10;99.90
12708;DHT22;6418;50.824;4.718;2023-07-20T11:50:12;23.10;99.90
12708;DHT22;6418;50.824;4.718;2023-07-20T11:52:40;23.00;99.90
12708;DHT22;6418;50.824;4.718;2023-07-20T11:55:09;22.70;99.90
12708;DHT22;6418;50.824;4.718;2023-07-20T11:57:36;22.50;99.90
12708;DHT22;6418;50.824;4.718;2023-07-20T12:00:05;22.50;99.90
12708;DHT22;6418;50.824;4.718;2023-07-20T12:02:37;22.60;99.90
12708;DHT22;6418;50.824;4.718;2023-07-20T12:05:05;22.40;99.90
12708;DHT22;6418;50.824;4.718;2023-07-20T12:07:36;22.50;99.90
12708;DHT22;6418;50.824;4.718;2023-07-20T12:10:08;22.50;99.90
12708;DHT22;6418;50.824;4.718;2023-07-20T12:12:38;22.50;99.90
12708;DHT22;6418;50.824;4.718;2023-07-20T12:15:13;22.50;99.90
12708;DHT22;6418;50.824;4.718;2023-07-20T12:17:42;22.50;99.90
12708;DHT22;6418;50.824;4.718;2023-07-20T12:20:10;22.50;99.90
12708;DHT22;6418;50.824;4.718;2023-07-20T12:22:40;22.60;99.90
12708;DHT22;6418;50.824;4.718;2023-07-20T12:25:09;22.80;99.90
12708;DHT22;6418;50.824;4.718;2023-07-20T12:27:36;23.00;99.90
12708;DHT22;6418;50.824;4.718;2023-07-20T12:30:05;23.10;99.90
12708;DHT22;6418;50.824;4.718;2023-07-20T12:32:33;23.30;99.90
12708;DHT22;6418;50.824;4.718;2023-07-20T12:35:00;23.30;99.90
12708;DHT22;6418;50.824;4.718;2023-07-20T12:37:27;23.50;99.90
12708;DHT22;6418;50.824;4.718;2023-07-20T12:39:54;23.60;99.90
12708;DHT22;6418;50.824;4.718;2023-07-20T12:42:22;23.70;99.90
12708;DHT22;6418;50.824;4.718;2023-07-20T12:44:49;23.90;99.90
12708;DHT22;6418;50.824;4.718;2023-07-20T12:47:17;24.00;99.90
12708;DHT22;6418;50.824;4.718;2023-07-20T12:49:44;24.20;99.90
12708;DHT22;6418;50.824;4.718;2023-07-20T12:52:12;24.30;99.90
12708;DHT22;6418;50.824;4.718;2023-07-20T12:54:39;24.50;99.90
12708;DHT22;6418;50.824;4.718;2023-07-20T12:57:06;24.60;99.90
12708;DHT22;6418;50.824;4.718;2023-07-20T12:59:35;24.70;99.90
12708;DHT22;6418;50.824;4.718;2023-07-20T13:02:02;24.80;99.90
12708;DHT22;6418;50.824;4.718;2023-07-20T13:04:29;24.90;99.90
12708;DHT22;6418;50.824;4.718;2023-07-20T13:06:56;24.90;99.90
12708;DHT22;6418;50.824;4.718;2023-07-20T13:09:24;24.90;99.90
12708;DHT22;6418;50.824;4.718;2023-07-20T13:11:51;24.80;99.90
12708;DHT22;6418;50.824;4.718;2023-07-20T13:14:18;24.80;99.90
12708;DHT22;6418;50.824;4.718;2023-07-20T13:16:47;24.50;99.90
12708;DHT22;6418;50.824;4.718;2023-07-20T13:19:14;24.60;99.90
12708;DHT22;6418;50.824;4.718;2023-07-20T13:21:40;24.60;99.90
12708;DHT22;6418;50.824;4.718;2023-07-20T13:24:08;24.70;99.90
12708;DHT22;6418;50.824;4.718;2023-07-20T13:26:35;24.70;99.90
12708;DHT22;6418;50.824;4.718;2023-07-20T13:29:02;24.80;99.90
12708;DHT22;6418;50.824;4.718;2023-07-20T13:31:29;24.70;99.90
12708;DHT22;6418;50.824;4.718;2023-07-20T13:33:57;24.70;99.90
12708;DHT22;6418;50.824;4.718;2023-07-20T13:36:25;24.50;99.90
12708;DHT22;6418;50.824;4.718;2023-07-20T13:38:51;24.30;99.90
12708;DHT22;6418;50.824;4.718;2023-07-20T13:41:19;24.20;99.90
12708;DHT22;6418;50.824;4.718;2023-07-20T13:43:45;24.20;99.90
12708;DHT22;6418;50.824;4.718;2023-07-20T13:46:12;24.10;99.90
12708;DHT22;6418;50.824;4.718;2023-07-20T13:48:39;23.90;99.90
12708;DHT22;6418;50.824;4.718;2023-07-20T13:51:07;23.70;99.90
12708;DHT22;6418;50.824;4.718;2023-07-20T13:53:34;23.70;99.90
12708;DHT22;6418;50.824;4.718;2023-07-20T13:56:01;23.80;99.90
12708;DHT22;6418;50.824;4.718;2023-07-20T13:58:30;23.80;99.90
12708;DHT22;6418;50.824;4.718;2023-07-20T14:00:57;23.90;99.90
12708;DHT22;6418;50.824;4.718;2023-07-20T14:03:23;23.70;99.90
12708;DHT22;6418;50.824;4.718;2023-07-20T14:05:50;23.60;99.90
12708;DHT22;6418;50.824;4.718;2023-07-20T14:08:19;23.60;99.90
12708;DHT22;6418;50.824;4.718;2023-07-20T14:10:46;23.60;99.90
12708;DHT22;6418;50.824;4.718;2023-07-20T14:13:12;23.60;99.90
12708;DHT22;6418;50.824;4.718;2023-07-20T14:15:39;23.70;99.90
12708;DHT22;6418;50.824;4.718;2023-07-20T14:18:06;23.60;99.90
12708;DHT22;6418;50.824;4.718;2023-07-20T14:20:33;23.40;99.90
12708;DHT22;6418;50.824;4.718;2023-07-20T14:23:00;23.20;99.90
12708;DHT22;6418;50.824;4.718;2023-07-20T14:25:29;23.20;99.90
12708;DHT22;6418;50.824;4.718;2023-07-20T14:27:55;23.10;99.90
12708;DHT22;6418;50.824;4.718;2023-07-20T14:30:23;23.20;99.90
12708;DHT22;6418;50.824;4.718;2023-07-20T14:32:50;23.10;99.90
12708;DHT22;6418;50.824;4.718;2023-07-20T14:35:17;22.90;99.90
12708;DHT22;6418;50.824;4.718;2023-07-20T14:37:42;23.00;99.90
12708;DHT22;6418;50.824;4.718;2023-07-20T14:40:12;23.10;99.90
12708;DHT22;6418;50.824;4.718;2023-07-20T14:42:41;23.10;99.90
12708;DHT22;6418;50.824;4.718;2023-07-20T14:45:08;23.20;99.90
12708;DHT22;6418;50.824;4.718;2023-07-20T14:47:35;23.10;99.90
12708;DHT22;6418;50.824;4.718;2023-07-20T14:50:02;23.10;99.90
12708;DHT22;6418;50.824;4.718;2023-07-20T14:52:29;22.50;99.90
12708;DHT22;6418;50.824;4.718;2023-07-20T14:54:56;22.40;99.90
12708;DHT22;6418;50.824;4.718;2023-07-20T14:57:23;22.30;99.90
12708;DHT22;6418;50.824;4.718;2023-07-20T14:59:51;22.40;99.90
12708;DHT22;6418;50.824;4.718;2023-07-20T15:02:18;22.60;99.90
12708;DHT22;6418;50.824;4.718;2023-07-20T15:04:46;22.90;99.90
12708;DHT22;6418;50.824;4.718;2023-07-20T15:07:14;23.50;99.90
12708;DHT22;6418;50.824;4.718;2023-07-20T15:09:41;24.20;99.90
12708;DHT22;6418;50.824;4.718;2023-07-20T15:12:09;24.70;99.90
12708;DHT22;6418;50.824;4.718;2023-07-20T15:14:35;25.30;99.90
12708;DHT22;6418;50.824;4.718;2023-07-20T15:17:04;25.90;99.90
12708;DHT22;6418;50.824;4.718;2023-07-20T15:19:31;26.30;99.90
12708;DHT22;6418;50.824;4.718;2023-07-20T15:21:59;26.70;99.90
12708;DHT22;6418;50.824;4.718;2023-07-20T15:24:26;27.20;99.90
12708;DHT22;6418;50.824;4.718;2023-07-20T15:26:52;27.50;99.90
12708;DHT22;6418;50.824;4.718;2023-07-20T15:29:19;27.70;99.90
12708;DHT22;6418;50.824;4.718;2023-07-20T15:31:47;27.80;99.90
12708;DHT22;6418;50.824;4.718;2023-07-20T15:34:15;27.60;99.90
12708;DHT22;6418;50.824;4.718;2023-07-20T15:36:42;27.70;99.90
12708;DHT22;6418;50.824;4.718;2023-07-20T15:39:09;27.80;99.90
12708;DHT22;6418;50.824;4.718;2023-07-20T15:41:36;27.30;99.90
12708;DHT22;6418;50.824;4.718;2023-07-20T15:44:03;27.10;99.90
12708;DHT22;6418;50.824;4.718;2023-07-20T15:46:45;26.60;99.90
12708;DHT22;6418;50.824;4.718;2023-07-20T15:49:12;26.40;99.90